Central Wisconsin Airport
KCWA : now visible

Airfield :











YOU CAN JOIN US ON...

 
LOGIN :

Register | Disclaimer

   EN    FR    IT 

 









Legend :    VFR   Marginal VFR   IFR   Intensive IFR   Very Intensive IFR
Visi :
Ceiling :
>= 8 km
>= 3000ft
5 to 8 km
1000 to 3000 ft
1500m to 5 km
500 to 1000 ft
800 to 1500m
200 to 500 ft
< 800m
< 200 ft
Symbols :   Thunderstorms  Fog  Heavy snow  Heavy precipitations  Wind > 20 kt






- Airport Elevation : 1277 ft


KCWA - Central Wisconsin

CURRENT METAR :
  • 152247Z 36005KT 10SM OVC007 01/00 A2959

EXPIRED METARs :
  • 152147Z 01007KT 7SM OVC007 01/00 A2958
  • 152047Z 01005KT 10SM OVC009 01/00 A2955

TAF KCWA
Valid from the 16 at 00:00 until the 17 at 00:00 UTC


152328Z 1600/1624 01005KT 4SM -RASN BR OVC007
FM160200 36006KT 4SM -SN BR OVC006
TEMPO 1602/1606 2SM -SN BR OVC004
FM160800 34008G15KT 4SM -SN BR OVC005
FM161400 34008G15KT P6SM -SHSN OVC015
FM161800 32008G15KT P6SM -SHSN OVC020 AMD LTD TO CLD VIS AND WIND 1604/1612
KZMP FIR / North America



MET'MAP, your aeronautical weather chart ! - Copyright ORBIFLY December 2007 - Disclaimer

ORBIFLY MET'MAP TEAM :

Programming & Development : Alexandra Zaïnal
Concept & original design : Baudouin d'Aumeries
Assistance for programming : Marc-Olivier Méhu
Technical & hardware support : Manuel Goepfert

Contact : metmap@orbifly.com




SOURCES & CREDITS :

   NOAA       Earth
Advisory